Saint Petersburg, FL (33703)

4:59 PM EST on February 14, 2016 (GMT -0500)
APRSWXNET | | Change Station
CLOSE
Current Station
Personal Weather Station
Location: Saint Petersburg, FL
Elevation: 13 ft
Nearby Weather Stations

Elev 13 ft 27.82 °N, 82.64 °W | Updated 16 minutes ago

Clear
Clear
74 °F
Feels Like 77 °F
N
1
Wind Variable Wind from ESE
Gusts 12.0 mph

Today
High -- | Low -- °F
--% Chance of Precip.
Yesterday
High -- | Low -- °F
Precip. -- in
Pressure 30.14 in
Visibility 10.0 miles
Clouds Clear
Heat Index 77 °F
Dew Point 48 °F
Humidity 40%
Rainfall in
Snow Depth Not available.
7:09 AM 6:20 PM
Waxing Crescent, 45% visible
METAR KSPG 142153Z 08007KT 10SM CLR 19/13 A3014 RMK AO2 SLP206 T01890128
Pressure 30.14 in
Visibility 10.0 miles
Clouds Clear
Heat Index 77 °F
Dew Point 48 °F
Humidity 40%
Rainfall in
Snow Depth Not available.
7:09 AM 6:20 PM
Waxing Crescent, 45% visible
METAR KSPG 142153Z 08007KT 10SM CLR 19/13 A3014 RMK AO2 SLP206 T01890128

10-Day Weather Forecast

Almanac

Astronomy

Feb. 14, 2016 Rise Set
Actual Time
Civil Twilight
Nautical Twilight
Astronomical Twilight
Moon
Length of Visible Light
Length of Day
Tomorrow will be .
, % of the Moon is Illuminated

Today's Extremes

State Highs State Lows

Community

WunderPhotos

Upload Photos

1,892,890 photos uploaded!

WunderBlog® & News

Nearby

Air Quality

  Air Quality AQ Index Pollutant
Not available.

Snow Depth

Station Depth Elevation

Earthquake Activity

City Distance Mag. Time & Date
Minimum magnitude displayed is 2.5.

Coastal Water Temperatures

Place Temperature

Stations

Nearby Weather Stations

Station Location Temp. Windchill Dew Point Humidity Wind Precip. Elev Updated Type
                   

Watches & Warnings

There are currently no watches in effect.